This is the latest recevied weather packets stored in our database for station/object MARKET. If no packets are shown the sender has not sent any weather packets the latest 10 day(s).
| Time | Temp. | Humidity | Pressure | Rain* | Wind** | Luminosity | Snow |
|---|---|---|---|---|---|---|---|
| 1777644424 | 7.78° C | 81% | 1016.6 hPa | - | - | - | - |
| 1777643224 | 7.78° C | 83% | 1016.8 hPa | - | - | - | - |
| 1777642025 | 7.78° C | 83% | 1017.1 hPa | - | - | - | - |
| 1777640824 | 7.78° C | 82% | 1017.4 hPa | - | - | - | - |
| 1777639625 | 7.78° C | 82% | 1017.8 hPa | - | - | - | - |
| 1777638424 | 7.78° C | 82% | 1018.2 hPa | - | - | - | - |
| 1777637224 | 8.33° C | 77% | 1018.5 hPa | - | - | - | - |
| 1777636024 | 8.33° C | 77% | 1018.9 hPa | - | - | - | - |
| 1777634824 | 8.89° C | 73% | 1019 hPa | - | - | - | - |
| 1777633624 | 8.89° C | 71% | 1019.3 hPa | - | - | - | - |
| 1777632423 | 8.89° C | 74% | 1019.6 hPa | - | - | - | - |
| 1777631224 | 8.89° C | 74% | 1020 hPa | - | - | - | - |
| 1777630023 | 8.33° C | 76% | 1020.2 hPa | - | - | - | - |
| 1777628824 | 8.89° C | 75% | 1020.6 hPa | - | - | - | - |
| 1777627624 | 8.33° C | 78% | 1020.9 hPa | - | - | - | - |
| 1777626423 | 7.78° C | 79% | 1021.1 hPa | - | - | - | - |
| 1777625224 | 7.78° C | 81% | 1021.3 hPa | - | - | - | - |
| 1777624024 | 7.22° C | 82% | 1021.4 hPa | - | - | - | - |
| 1777622826 | 7.78° C | 81% | 1021.5 hPa | - | - | - | - |
| 1777621623 | 7.22° C | 83% | 1021.7 hPa | - | - | - | - |
| 1777620423 | 7.22° C | 82% | 1021.9 hPa | - | - | - | - |
| 1777619223 | 8.33° C | 73% | 1022.1 hPa | - | - | - | - |
| 1777618023 | 7.78° C | 78% | 1022.1 hPa | - | - | - | - |
| 1777616824 | 9.44° C | 67% | 1022.2 hPa | - | - | - | - |
| 1777615623 | 9.44° C | 66% | 1022.2 hPa | - | - | - | - |
* Rain since midnight (hover to see other rain measurements)
** Current wind speed in m/s (hover to see current wind gust speed)